createdAt,value
2022-11-10T00:01:06.242Z,9.30
2022-11-10T00:03:33.213Z,13.10
2022-11-10T00:06:02.859Z,9.05
2022-11-10T00:08:29.503Z,14.07
2022-11-10T00:10:59.153Z,8.50
2022-11-10T00:13:32.561Z,14.18
2022-11-10T00:16:23.707Z,13.80
2022-11-10T00:18:51.002Z,13.77
2022-11-10T00:21:18.479Z,18.63
2022-11-10T00:23:47.717Z,12.43
2022-11-10T00:26:17.381Z,17.90
2022-11-10T00:28:44.871Z,18.52
2022-11-10T00:31:12.307Z,19.15
2022-11-10T00:33:40.785Z,17.23
2022-11-10T00:36:07.656Z,8.93
2022-11-10T00:38:34.416Z,12.45
2022-11-10T00:41:01.956Z,14.27
2022-11-10T00:43:30.157Z,13.02
2022-11-10T00:45:57.545Z,14.27
2022-11-10T00:48:24.313Z,13.75
2022-11-10T00:50:51.543Z,12.13
2022-11-10T00:53:18.830Z,9.95
2022-11-10T00:55:45.749Z,9.18
2022-11-10T00:58:12.481Z,7.97
2022-11-10T01:00:39.097Z,11.82
2022-11-10T01:03:06.391Z,10.35
2022-11-10T01:05:37.156Z,10.90
2022-11-10T01:08:04.579Z,15.25
2022-11-10T01:10:31.333Z,10.73
2022-11-10T01:12:58.669Z,13.25
2022-11-10T01:15:27.846Z,15.07
2022-11-10T01:17:56.059Z,9.00
2022-11-10T01:20:23.411Z,17.95
2022-11-10T01:22:50.030Z,11.52
2022-11-10T01:25:16.773Z,6.55
2022-11-10T01:27:43.405Z,13.07
2022-11-10T01:30:10.493Z,15.98
2022-11-10T01:32:37.206Z,15.27
2022-11-10T01:35:04.134Z,10.18
2022-11-10T01:37:30.775Z,10.00
2022-11-10T01:39:57.394Z,17.60
2022-11-10T01:42:26.209Z,12.75
2022-11-10T01:45:24.024Z,12.20
2022-11-10T01:47:59.622Z,13.77
2022-11-10T01:50:28.963Z,7.05
2022-11-10T01:52:59.867Z,9.63
2022-11-10T01:55:27.426Z,7.40
2022-11-10T01:57:55.375Z,9.07
2022-11-10T02:00:22.772Z,8.57
2022-11-10T02:03:21.447Z,8.07
2022-11-10T02:05:50.069Z,12.18
2022-11-10T02:08:18.927Z,13.02
2022-11-10T02:10:45.527Z,13.33
2022-11-10T02:13:12.400Z,13.23
2022-11-10T02:15:39.760Z,6.38
2022-11-10T02:18:06.372Z,9.90
2022-11-10T02:20:33.140Z,12.10
2022-11-10T02:23:10.074Z,7.38
2022-11-10T02:25:37.561Z,6.35
2022-11-10T02:28:04.277Z,10.55
2022-11-10T02:30:30.991Z,8.95
2022-11-10T02:32:57.691Z,7.20
2022-11-10T02:35:24.331Z,10.07
2022-11-10T02:37:50.913Z,14.25
2022-11-10T02:40:17.615Z,14.20
2022-11-10T02:42:44.240Z,10.05
2022-11-10T02:45:10.981Z,7.47
2022-11-10T02:47:37.819Z,8.77
2022-11-10T02:50:04.627Z,9.35
2022-11-10T02:52:31.201Z,8.05
2022-11-10T02:54:57.870Z,14.43
2022-11-10T02:57:24.466Z,9.07
2022-11-10T02:59:51.118Z,11.60
2022-11-10T03:02:17.728Z,9.93
2022-11-10T03:04:44.384Z,8.30
2022-11-10T03:07:11.088Z,10.05
2022-11-10T03:09:37.789Z,8.15
2022-11-10T03:12:04.533Z,6.47
2022-11-10T03:14:31.258Z,15.80
2022-11-10T03:16:57.861Z,9.63
2022-11-10T03:19:24.457Z,11.45
2022-11-10T03:21:51.172Z,10.82
2022-11-10T03:24:17.760Z,8.15
2022-11-10T03:26:44.462Z,13.57
2022-11-10T03:29:11.078Z,12.45
2022-11-10T03:31:37.710Z,11.50
2022-11-10T03:34:04.299Z,13.90
2022-11-10T03:36:30.904Z,13.43
2022-11-10T03:38:57.469Z,9.82
2022-11-10T03:41:24.134Z,13.55
2022-11-10T03:43:50.814Z,10.77
2022-11-10T03:46:18.332Z,9.73
2022-11-10T03:48:51.824Z,10.00
2022-11-10T03:51:20.001Z,10.68
2022-11-10T03:53:46.682Z,9.43
2022-11-10T03:56:13.291Z,9.45
2022-11-10T03:58:40.694Z,9.70
2022-11-10T04:01:07.502Z,7.28
2022-11-10T04:03:34.415Z,14.90
2022-11-10T04:06:19.755Z,17.08
2022-11-10T04:09:01.444Z,13.00
2022-11-10T04:11:48.890Z,22.27
2022-11-10T04:14:35.066Z,44.70
2022-11-10T04:17:02.277Z,27.20
2022-11-10T04:19:29.148Z,19.88
2022-11-10T04:21:56.154Z,16.20
2022-11-10T04:24:22.856Z,22.58
2022-11-10T04:26:49.666Z,16.83
2022-11-10T04:29:18.367Z,16.85
2022-11-10T04:31:45.236Z,21.65
2022-11-10T04:34:14.112Z,18.10
2022-11-10T04:36:43.013Z,16.88
2022-11-10T04:39:10.678Z,16.67
2022-11-10T04:41:37.904Z,13.05
2022-11-10T04:44:05.080Z,15.02
2022-11-10T04:46:38.955Z,12.48
2022-11-10T04:49:07.145Z,14.60
2022-11-10T04:51:35.899Z,14.93
2022-11-10T04:54:03.652Z,19.03
2022-11-10T04:56:30.581Z,17.02
2022-11-10T04:58:57.428Z,15.65
2022-11-10T05:01:26.875Z,16.85
2022-11-10T05:03:54.605Z,15.75
2022-11-10T05:06:21.701Z,31.40
2022-11-10T05:08:48.657Z,20.67
2022-11-10T05:11:15.514Z,28.25
2022-11-10T05:13:43.012Z,17.55
2022-11-10T05:16:10.410Z,34.67
2022-11-10T05:18:37.031Z,19.33
2022-11-10T05:21:03.922Z,24.73
2022-11-10T05:23:39.701Z,29.95
2022-11-10T05:26:14.930Z,34.53
2022-11-10T05:28:43.755Z,46.28
2022-11-10T05:31:11.536Z,75.73
2022-11-10T05:33:38.595Z,30.65
2022-11-10T05:36:06.979Z,33.30
2022-11-10T05:38:37.552Z,22.27
2022-11-10T05:41:07.114Z,36.42
2022-11-10T05:43:33.668Z,29.60
2022-11-10T05:46:00.591Z,23.35
2022-11-10T05:48:27.157Z,66.65
2022-11-10T05:50:53.988Z,36.33
2022-11-10T05:53:20.847Z,30.30
2022-11-10T05:55:47.641Z,31.67
2022-11-10T05:58:14.388Z,48.63
2022-11-10T06:00:41.001Z,42.08
2022-11-10T06:03:13.925Z,19.85
2022-11-10T06:05:40.763Z,32.33
2022-11-10T06:08:07.830Z,22.00
2022-11-10T06:10:35.923Z,32.13
2022-11-10T06:13:03.333Z,19.98
2022-11-10T06:15:30.409Z,15.20
2022-11-10T06:17:57.860Z,21.33
2022-11-10T06:20:25.812Z,30.05
2022-11-10T06:23:04.933Z,18.98
2022-11-10T06:25:34.038Z,31.05
2022-11-10T06:28:01.456Z,19.58
2022-11-10T06:30:28.879Z,23.40
2022-11-10T06:32:55.941Z,17.60
2022-11-10T06:35:24.105Z,39.97
2022-11-10T06:38:07.825Z,30.65
2022-11-10T06:40:34.672Z,53.10
2022-11-10T06:43:01.724Z,55.38
2022-11-10T06:45:28.837Z,126.72
2022-11-10T06:48:12.008Z,40.25
2022-11-10T06:50:38.724Z,74.68
2022-11-10T06:53:05.526Z,43.80
2022-11-10T06:55:32.443Z,71.78
2022-11-10T06:57:59.464Z,114.95
2022-11-10T07:00:27.645Z,35.08
2022-11-10T07:03:05.528Z,42.85
2022-11-10T07:05:34.705Z,36.28
2022-11-10T07:08:16.327Z,23.95
2022-11-10T07:10:45.115Z,19.65
2022-11-10T07:13:12.150Z,16.33
2022-11-10T07:15:38.795Z,17.02
2022-11-10T07:18:05.530Z,17.77
2022-11-10T07:20:32.412Z,22.60
2022-11-10T07:23:00.537Z,11.52
2022-11-10T07:25:28.618Z,14.23
2022-11-10T07:27:59.886Z,13.73
2022-11-10T07:30:30.610Z,13.85
2022-11-10T07:33:02.302Z,10.95
2022-11-10T07:35:30.629Z,13.63
2022-11-10T07:37:58.607Z,13.32
2022-11-10T07:40:25.244Z,12.52
2022-11-10T07:42:52.086Z,12.30
2022-11-10T07:45:18.686Z,14.07
2022-11-10T07:47:45.372Z,14.75
2022-11-10T07:50:12.124Z,17.45
2022-11-10T07:52:38.954Z,9.50
2022-11-10T07:55:06.761Z,18.23
2022-11-10T07:57:33.684Z,15.23
2022-11-10T08:00:00.595Z,11.95
2022-11-10T08:02:27.337Z,16.38
2022-11-10T08:04:54.085Z,9.27
2022-11-10T08:07:20.890Z,18.52
2022-11-10T08:09:47.657Z,11.82
2022-11-10T08:12:14.239Z,10.15
2022-11-10T08:14:40.954Z,21.40
2022-11-10T08:17:07.691Z,13.50
2022-11-10T08:19:34.282Z,11.20
2022-11-10T08:22:00.887Z,21.23
2022-11-10T08:24:27.545Z,18.35
2022-11-10T08:26:54.133Z,14.50
2022-11-10T08:29:20.963Z,18.85
2022-11-10T08:31:47.609Z,15.65
2022-11-10T08:34:14.775Z,13.40
2022-11-10T08:36:41.425Z,11.32
2022-11-10T08:39:08.057Z,15.00
2022-11-10T08:41:34.673Z,15.02
2022-11-10T08:44:01.327Z,16.55
2022-11-10T08:46:27.948Z,14.52
2022-11-10T08:48:54.589Z,12.23
2022-11-10T08:51:22.230Z,8.07
2022-11-10T08:53:48.823Z,12.43
2022-11-10T08:56:15.477Z,12.43
2022-11-10T08:58:50.150Z,9.75
2022-11-10T09:01:20.513Z,16.85
2022-11-10T09:03:47.124Z,9.77
2022-11-10T09:06:13.711Z,15.60
2022-11-10T09:08:40.316Z,6.65
2022-11-10T09:11:07.039Z,12.85
2022-11-10T09:13:34.004Z,11.90
2022-11-10T09:16:02.403Z,12.35
2022-11-10T09:18:29.711Z,14.90
2022-11-10T09:20:56.483Z,13.63
2022-11-10T09:23:25.187Z,15.35
2022-11-10T09:25:54.186Z,12.40
2022-11-10T09:28:21.697Z,12.23
2022-11-10T09:30:50.167Z,14.40
2022-11-10T09:33:20.099Z,17.52
2022-11-10T09:35:47.169Z,14.27
2022-11-10T09:38:13.979Z,17.45
2022-11-10T09:41:03.249Z,16.83
2022-11-10T09:43:44.550Z,9.20
2022-11-10T09:46:19.270Z,19.63
2022-11-10T09:48:53.739Z,18.55
2022-11-10T09:51:29.547Z,12.80
2022-11-10T09:54:32.851Z,16.35
2022-11-10T09:57:00.853Z,13.30
2022-11-10T09:59:32.463Z,20.15
2022-11-10T10:02:05.271Z,11.52
2022-11-10T10:04:51.703Z,18.50
2022-11-10T10:07:26.381Z,15.38
2022-11-10T10:10:18.121Z,19.17
2022-11-10T10:12:51.798Z,17.35
2022-11-10T10:15:26.946Z,12.38
2022-11-10T10:18:06.931Z,14.77
2022-11-10T10:20:50.018Z,10.52
2022-11-10T10:26:41.260Z,16.77
2022-11-10T10:29:11.179Z,10.07
2022-11-10T10:31:45.364Z,14.13
2022-11-10T10:34:16.170Z,18.02
2022-11-10T10:36:44.396Z,19.55
2022-11-10T10:39:13.844Z,17.05
2022-11-10T10:41:43.917Z,15.88
2022-11-10T10:44:13.597Z,16.63
2022-11-10T10:49:30.056Z,14.18
2022-11-10T10:52:04.885Z,16.60
2022-11-10T10:54:33.646Z,19.10
2022-11-10T10:57:24.382Z,16.40
2022-11-10T10:59:52.055Z,15.60
2022-11-10T11:02:32.226Z,18.27
2022-11-10T11:05:19.322Z,12.20
2022-11-10T11:08:00.211Z,18.20
2022-11-10T11:10:31.847Z,10.57
2022-11-10T11:13:14.249Z,16.83
2022-11-10T11:15:40.985Z,14.50
2022-11-10T11:18:18.486Z,15.07
2022-11-10T11:21:12.976Z,15.00
2022-11-10T11:24:19.484Z,18.73
2022-11-10T11:26:55.514Z,13.10
2022-11-10T11:29:34.390Z,20.88
2022-11-10T11:32:28.948Z,15.55
2022-11-10T11:35:15.726Z,18.63
2022-11-10T11:38:02.056Z,15.45
2022-11-10T11:40:58.196Z,14.75
2022-11-10T11:43:49.895Z,13.32
2022-11-10T11:46:28.860Z,14.23
2022-11-10T11:49:24.246Z,14.98
2022-11-10T11:52:11.898Z,10.13
2022-11-10T11:54:58.620Z,15.35
2022-11-10T11:57:37.221Z,16.13
2022-11-10T12:00:16.866Z,15.75
2022-11-10T12:02:57.569Z,12.93
2022-11-10T12:05:33.034Z,12.30
2022-11-10T12:08:18.065Z,10.05
2022-11-10T12:11:11.172Z,16.00
2022-11-10T12:13:50.618Z,16.65
2022-11-10T12:16:25.447Z,12.68
2022-11-10T12:19:04.058Z,12.25
2022-11-10T12:21:48.605Z,15.52
2022-11-10T12:24:53.343Z,15.45
2022-11-10T12:27:28.483Z,15.18
2022-11-10T12:30:09.484Z,13.05
2022-11-10T12:33:04.058Z,14.68
2022-11-10T12:35:35.345Z,14.07
2022-11-10T12:38:16.487Z,7.57
2022-11-10T12:40:58.986Z,15.02
2022-11-10T12:44:13.975Z,10.82
2022-11-10T12:46:45.980Z,10.43
2022-11-10T12:49:28.425Z,19.67
2022-11-10T12:52:10.381Z,10.40
2022-11-10T12:54:44.496Z,13.57
2022-11-10T12:57:20.490Z,12.38
2022-11-10T12:59:59.223Z,16.30
2022-11-10T13:02:40.702Z,11.63
2022-11-10T13:05:27.439Z,4.25
2022-11-10T13:08:25.502Z,11.90
2022-11-10T13:11:20.181Z,12.43
2022-11-10T13:13:59.473Z,7.78
2022-11-10T13:16:41.834Z,8.80
2022-11-10T13:19:10.390Z,16.02
2022-11-10T13:21:52.259Z,12.25
2022-11-10T13:24:27.631Z,11.70
2022-11-10T13:26:56.030Z,9.52
2022-11-10T13:29:42.641Z,16.65
2022-11-10T13:32:15.430Z,10.70
2022-11-10T13:34:43.879Z,6.50
2022-11-10T13:37:29.187Z,13.05
2022-11-10T13:40:20.894Z,14.30
2022-11-10T13:42:59.503Z,10.07
2022-11-10T13:45:36.942Z,14.50
2022-11-10T13:48:35.181Z,12.20
2022-11-10T13:51:24.355Z,14.40
2022-11-10T13:54:18.925Z,15.02
2022-11-10T13:56:57.799Z,7.82
2022-11-10T13:59:30.624Z,10.40
2022-11-10T14:02:34.734Z,11.30
2022-11-10T14:05:02.305Z,9.10
2022-11-10T14:07:43.295Z,7.00
2022-11-10T14:10:16.190Z,11.20
2022-11-10T14:12:55.666Z,11.52
2022-11-10T14:15:37.487Z,12.55
2022-11-10T14:18:27.051Z,6.50
2022-11-10T14:21:01.958Z,8.25
2022-11-10T14:23:31.556Z,17.10
2022-11-10T14:26:05.912Z,13.50
2022-11-10T14:28:35.075Z,16.00
2022-11-10T14:31:01.796Z,6.38
2022-11-10T14:33:28.619Z,12.10
2022-11-10T14:36:01.537Z,12.65
2022-11-10T14:38:33.979Z,7.63
2022-11-10T14:41:02.711Z,9.50
2022-11-10T14:43:37.121Z,7.97
2022-11-10T14:46:05.892Z,10.18
2022-11-10T14:48:35.335Z,10.90
2022-11-10T14:51:04.939Z,10.20
2022-11-10T14:53:34.012Z,10.75
2022-11-10T14:56:02.792Z,11.50
2022-11-10T14:58:39.085Z,11.70
2022-11-10T15:01:07.556Z,11.38
2022-11-10T15:03:39.562Z,13.77
2022-11-10T15:06:10.048Z,8.90
2022-11-10T15:08:37.804Z,8.68
2022-11-10T15:11:05.066Z,18.20
2022-11-10T15:13:33.235Z,10.98
2022-11-10T15:16:38.609Z,9.98
2022-11-10T15:19:31.109Z,14.05
2022-11-10T15:22:06.753Z,13.88
2022-11-10T15:24:33.517Z,10.60
2022-11-10T15:27:00.657Z,7.95
2022-11-10T15:29:29.958Z,15.68
2022-11-10T15:31:56.564Z,9.95
2022-11-10T15:34:38.595Z,11.85
2022-11-10T15:37:12.707Z,14.45
2022-11-10T15:39:39.410Z,6.47
2022-11-10T15:42:21.385Z,14.85
2022-11-10T15:44:48.300Z,7.32
2022-11-10T15:47:17.796Z,8.70
2022-11-10T15:49:44.850Z,11.65
2022-11-10T15:52:22.531Z,10.55
2022-11-10T15:54:50.748Z,17.80
2022-11-10T15:57:19.262Z,16.08
2022-11-10T15:59:45.929Z,11.73
2022-11-10T16:02:21.190Z,11.30
2022-11-10T16:04:52.418Z,14.23
2022-11-10T16:07:21.732Z,14.23
2022-11-10T16:09:48.394Z,16.23
2022-11-10T16:12:19.221Z,16.20
2022-11-10T16:14:50.873Z,12.98
2022-11-10T16:17:18.514Z,17.23
2022-11-10T16:19:46.736Z,13.52
2022-11-10T16:22:13.721Z,9.63
2022-11-10T16:24:40.876Z,12.40
2022-11-10T16:27:11.614Z,12.48
2022-11-10T16:29:38.279Z,13.98
2022-11-10T16:32:05.617Z,12.57
2022-11-10T16:34:32.336Z,14.98
2022-11-10T16:37:00.004Z,14.10
2022-11-10T16:39:27.528Z,14.57
2022-11-10T16:41:54.151Z,15.98
2022-11-10T16:44:25.356Z,15.13
2022-11-10T16:46:55.991Z,12.30
2022-11-10T16:49:34.205Z,21.05
2022-11-10T16:52:12.100Z,27.67
2022-11-10T16:54:38.860Z,33.53
2022-11-10T16:57:16.596Z,26.88
2022-11-10T16:59:45.710Z,25.63
2022-11-10T17:02:35.640Z,21.55
2022-11-10T17:05:02.559Z,25.02
2022-11-10T17:07:29.739Z,24.88
2022-11-10T17:09:58.831Z,15.15
2022-11-10T17:12:25.453Z,16.70
2022-11-10T17:14:52.138Z,19.98
2022-11-10T17:17:19.665Z,24.20
2022-11-10T17:19:48.495Z,12.98
2022-11-10T17:22:19.434Z,18.27
2022-11-10T17:24:52.479Z,16.75
2022-11-10T17:27:20.078Z,17.73
2022-11-10T17:29:47.072Z,16.52
2022-11-10T17:32:13.717Z,14.75
2022-11-10T17:34:40.346Z,15.93
2022-11-10T17:37:10.572Z,17.27
2022-11-10T17:39:37.210Z,12.02
2022-11-10T17:42:03.965Z,17.45
2022-11-10T17:44:30.612Z,17.38
2022-11-10T17:46:57.265Z,11.80
2022-11-10T17:49:23.851Z,16.98
2022-11-10T17:51:50.944Z,24.60
2022-11-10T17:54:17.854Z,22.00
2022-11-10T17:56:44.492Z,18.00
2022-11-10T17:59:11.196Z,30.73
2022-11-10T18:01:37.943Z,29.17
2022-11-10T18:04:04.580Z,21.70
2022-11-10T18:06:31.264Z,20.20
2022-11-10T18:08:58.029Z,28.02
2022-11-10T18:11:24.646Z,29.30
2022-11-10T18:13:51.381Z,25.10
2022-11-10T18:16:18.120Z,26.90
2022-11-10T18:18:44.725Z,26.83
2022-11-10T18:21:12.016Z,28.15
2022-11-10T18:23:38.646Z,25.45
2022-11-10T18:26:07.343Z,24.10
2022-11-10T18:28:34.866Z,25.25
2022-11-10T18:31:09.644Z,24.05
2022-11-10T18:33:36.799Z,31.25
2022-11-10T18:36:03.940Z,39.75
2022-11-10T18:38:30.677Z,28.75
2022-11-10T18:41:21.280Z,32.97
2022-11-10T18:43:47.856Z,31.58
2022-11-10T18:46:14.553Z,27.13
2022-11-10T18:48:41.264Z,31.98
2022-11-10T18:51:08.643Z,23.15
2022-11-10T18:53:38.218Z,30.70
2022-11-10T18:56:05.512Z,31.38
2022-11-10T18:58:32.145Z,26.10
2022-11-10T19:01:06.716Z,33.17
2022-11-10T19:03:34.946Z,28.35
2022-11-10T19:06:01.882Z,29.67
2022-11-10T19:08:28.893Z,32.42
2022-11-10T19:10:57.035Z,24.90
2022-11-10T19:13:24.326Z,29.10
2022-11-10T19:15:51.342Z,25.98
2022-11-10T19:18:18.029Z,19.48
2022-11-10T19:20:44.670Z,22.08
2022-11-10T19:23:11.422Z,22.13
2022-11-10T19:25:38.070Z,22.85
2022-11-10T19:28:04.700Z,34.08
2022-11-10T19:30:31.499Z,32.97
2022-11-10T19:32:58.078Z,26.27
2022-11-10T19:35:24.824Z,24.88
2022-11-10T19:37:53.988Z,25.77
2022-11-10T19:40:21.471Z,30.67
2022-11-10T19:42:48.737Z,27.23
2022-11-10T19:45:16.589Z,30.75
2022-11-10T19:47:43.637Z,25.65
2022-11-10T19:50:10.399Z,22.77
2022-11-10T19:52:37.112Z,41.15
2022-11-10T19:55:03.965Z,33.65
2022-11-10T19:57:30.593Z,31.00
2022-11-10T19:59:57.243Z,29.33
2022-11-10T20:02:24.086Z,46.03
2022-11-10T20:05:09.384Z,30.50
2022-11-10T20:07:54.456Z,42.38
2022-11-10T20:10:21.178Z,32.05
2022-11-10T20:12:47.836Z,22.77
2022-11-10T20:15:14.468Z,30.38
2022-11-10T20:17:41.402Z,30.40
2022-11-10T20:20:08.806Z,80.13
2022-11-10T20:22:35.806Z,29.33
2022-11-10T20:25:02.840Z,25.13
2022-11-10T20:27:30.006Z,28.48
2022-11-10T20:29:56.742Z,34.10
2022-11-10T20:32:23.492Z,32.90
2022-11-10T20:34:50.334Z,35.90
2022-11-10T20:37:17.119Z,32.72
2022-11-10T20:39:43.789Z,39.85
2022-11-10T20:42:10.416Z,37.22
2022-11-10T20:44:37.113Z,38.00
2022-11-10T20:47:04.510Z,32.45
2022-11-10T20:49:31.176Z,35.95
2022-11-10T20:51:59.830Z,34.80
2022-11-10T20:54:27.185Z,32.42
2022-11-10T20:56:54.117Z,36.88
2022-11-10T20:59:20.804Z,27.05
2022-11-10T21:01:47.545Z,35.85
2022-11-10T21:04:14.295Z,26.17
2022-11-10T21:06:41.028Z,22.60
2022-11-10T21:09:07.802Z,21.10
2022-11-10T21:11:53.545Z,31.27
2022-11-10T21:14:20.172Z,30.67
2022-11-10T21:16:46.916Z,25.00
2022-11-10T21:19:13.544Z,26.83
2022-11-10T21:21:40.520Z,29.02
2022-11-10T21:24:08.189Z,22.50
2022-11-10T21:26:35.646Z,19.88
2022-11-10T21:29:03.259Z,23.08
2022-11-10T21:31:30.714Z,18.52
2022-11-10T21:33:58.423Z,26.38
2022-11-10T21:36:29.236Z,15.88
2022-11-10T21:38:57.468Z,21.52
2022-11-10T21:41:24.995Z,20.70
2022-11-10T21:43:51.702Z,18.30
2022-11-10T21:46:18.666Z,17.55
2022-11-10T21:48:45.418Z,23.08
2022-11-10T21:51:14.154Z,25.55
2022-11-10T21:53:41.891Z,24.27
2022-11-10T21:56:10.782Z,19.33
2022-11-10T21:58:38.393Z,19.27
2022-11-10T22:01:13.488Z,14.45
2022-11-10T22:03:40.602Z,18.02
2022-11-10T22:06:09.985Z,14.75
2022-11-10T22:08:37.560Z,20.30
2022-11-10T22:11:23.564Z,18.77
2022-11-10T22:14:09.148Z,17.23
2022-11-10T22:17:03.931Z,13.85
2022-11-10T22:19:31.728Z,18.27
2022-11-10T22:22:03.271Z,20.67
2022-11-10T22:24:30.523Z,22.02
2022-11-10T22:27:02.055Z,14.30
2022-11-10T22:29:31.977Z,12.98
2022-11-10T22:32:02.223Z,24.73
2022-11-10T22:34:28.922Z,19.33
2022-11-10T22:36:55.811Z,22.20
2022-11-10T22:39:22.438Z,18.83
2022-11-10T22:42:07.804Z,14.65
2022-11-10T22:44:34.487Z,15.35
2022-11-10T22:47:01.237Z,15.80
2022-11-10T22:49:27.947Z,18.42
2022-11-10T22:51:55.518Z,17.25
2022-11-10T22:54:23.581Z,20.52
2022-11-10T22:56:51.366Z,18.02
2022-11-10T22:59:18.891Z,19.88
2022-11-10T23:01:45.805Z,20.70
2022-11-10T23:04:12.552Z,21.65
2022-11-10T23:06:39.353Z,16.63
2022-11-10T23:09:06.292Z,28.05
2022-11-10T23:11:33.390Z,17.88
2022-11-10T23:14:00.139Z,21.60
2022-11-10T23:16:29.736Z,18.45
2022-11-10T23:18:57.724Z,17.83
2022-11-10T23:21:27.017Z,16.65
2022-11-10T23:23:54.120Z,21.02
2022-11-10T23:26:23.775Z,19.67
2022-11-10T23:31:19.314Z,22.13
2022-11-10T23:33:47.954Z,19.75
2022-11-10T23:36:19.251Z,23.27
2022-11-10T23:38:47.134Z,25.27
2022-11-10T23:41:18.701Z,24.23
2022-11-10T23:43:45.869Z,28.50
2022-11-10T23:46:13.054Z,24.75
2022-11-10T23:48:40.227Z,21.58
2022-11-10T23:51:09.525Z,22.55
2022-11-10T23:53:36.280Z,22.08
2022-11-10T23:56:06.180Z,26.85
2022-11-10T23:58:33.062Z,23.65
